Time;durP1;ratioP1;P1;durP2;ratioP2;P2;SDS_P1;SDS_P2;PMS_P1;PMS_P2;Temp;Humidity;BMP_temperature;BMP_pressure;BME280_temperature;BME280_humidity;BME280_pressure;Samples;Min_cycle;Max_cycle;Signal;HPM_P1;HPM_P2
2021/08/26 00:00:24;;;;;;;5.20;2.22;;;21.20;73.60;;;;;;4209676;28;20667;-60
2021/08/26 00:08:07;;;;;;;7.57;2.30;;;21.20;74.30;;;;;;4197620;28;20090;-60
2021/08/26 00:10:30;;;;;;;6.85;2.30;;;21.20;74.60;;;;;;4192883;28;20495;-60
2021/08/26 00:12:53;;;;;;;6.55;2.40;;;21.20;74.10;;;;;;4203167;28;20071;-60
2021/08/26 00:15:15;;;;;;;10.77;2.75;;;21.10;74.30;;;;;;4209437;28;20055;-60
2021/08/26 00:17:39;;;;;;;7.55;2.60;;;21.20;75.60;;;;;;4209307;28;20117;-60
2021/08/26 00:20:02;;;;;;;5.47;2.28;;;21.20;74.70;;;;;;4206881;28;20052;-60
2021/08/26 00:22:24;;;;;;;13.38;2.53;;;21.20;74.60;;;;;;4192836;28;20114;-59
2021/08/26 00:24:47;;;;;;;4.20;2.17;;;21.10;74.40;;;;;;4192402;28;20058;-59
2021/08/26 00:27:09;;;;;;;8.10;2.33;;;21.10;74.10;;;;;;4192434;28;20060;-60
2021/08/26 00:29:31;;;;;;;6.28;1.90;;;21.10;74.00;;;;;;4192425;28;20041;-60
2021/08/26 00:31:54;;;;;;;7.32;2.60;;;21.10;74.00;;;;;;4175362;28;20040;-59
2021/08/26 00:34:16;;;;;;;5.45;2.30;;;21.10;74.40;;;;;;4175811;28;20426;-59
2021/08/26 00:36:39;;;;;;;4.43;2.28;;;21.10;74.20;;;;;;4192277;28;20120;-58
2021/08/26 00:39:01;;;;;;;6.18;1.75;;;21.10;74.10;;;;;;4192464;28;20052;-60
2021/08/26 00:41:23;;;;;;;6.30;1.98;;;21.10;74.50;;;;;;4203658;28;20044;-59
2021/08/26 00:43:45;;;;;;;4.57;1.48;;;21.10;74.30;;;;;;4208668;28;20559;-59
2021/08/26 00:46:11;;;;;;;6.40;2.50;;;21.10;73.40;;;;;;4208715;28;20051;-60
2021/08/26 00:48:33;;;;;;;5.57;2.15;;;21.10;73.70;;;;;;4209183;28;20040;-59
2021/08/26 00:50:57;;;;;;;4.50;1.60;;;21.10;73.60;;;;;;4197806;28;20094;-59
2021/08/26 00:53:21;;;;;;;5.35;1.63;;;21.10;73.10;;;;;;4207270;28;20546;-59
2021/08/26 00:55:43;;;;;;;8.68;2.03;;;21.10;73.50;;;;;;4208816;28;20046;-59
2021/08/26 00:58:05;;;;;;;4.47;1.63;;;21.10;73.20;;;;;;4208716;28;20063;-59
2021/08/26 01:00:27;;;;;;;3.35;1.75;;;21.10;73.60;;;;;;4202033;28;20048;-59
2021/08/26 01:03:03;;;;;;;4.63;1.90;;;21.10;73.50;;;;;;4191873;28;20049;-59
2021/08/26 01:05:33;;;;;;;2.17;1.00;;;21.10;74.30;;;;;;4192758;28;20048;-60
2021/08/26 01:08:02;;;;;;;3.38;1.42;;;21.10;74.60;;;;;;4192094;28;20071;-59
2021/08/26 01:10:26;;;;;;;3.05;1.42;;;21.10;74.60;;;;;;4197095;28;20039;-59
2021/08/26 01:12:52;;;;;;;3.85;1.33;;;21.00;74.60;;;;;;4194379;28;20052;-59
2021/08/26 01:15:14;;;;;;;6.75;1.60;;;21.00;74.50;;;;;;4190764;28;20552;-59
2021/08/26 01:17:36;;;;;;;2.90;1.30;;;21.00;74.70;;;;;;4202574;28;20044;-59
2021/08/26 01:20:00;;;;;;;5.38;1.65;;;21.00;74.30;;;;;;4204502;28;20764;-60
2021/08/26 01:22:24;;;;;;;2.35;1.10;;;21.00;74.90;;;;;;4191700;28;20502;-59
2021/08/26 01:24:50;;;;;;;3.95;1.67;;;21.00;73.60;;;;;;4191725;28;20044;-59
2021/08/26 01:27:16;;;;;;;4.25;1.90;;;21.00;73.30;;;;;;4193480;28;20102;-59
2021/08/26 01:29:38;;;;;;;4.88;1.58;;;21.00;71.90;;;;;;4198874;28;20056;-60
2021/08/26 01:32:02;;;;;;;2.83;1.35;;;21.00;73.00;;;;;;4191656;28;20080;-59
2021/08/26 01:34:24;;;;;;;3.13;1.23;;;21.00;73.60;;;;;;4191334;28;20056;-60
2021/08/26 01:36:47;;;;;;;3.00;1.25;;;21.00;73.10;;;;;;4175034;28;20045;-59
2021/08/26 01:39:11;;;;;;;2.40;1.40;;;21.00;74.00;;;;;;4174885;28;20055;-59
2021/08/26 01:41:38;;;;;;;4.65;1.40;;;21.00;73.90;;;;;;4174558;28;20036;-60
2021/08/26 01:44:02;;;;;;;3.92;1.40;;;21.00;73.50;;;;;;4174317;28;20138;-60
2021/08/26 01:46:26;;;;;;;7.25;1.50;;;21.00;73.70;;;;;;4208070;28;20036;-59
2021/08/26 01:48:48;;;;;;;3.65;1.40;;;21.00;73.70;;;;;;4208093;28;20482;-59
2021/08/26 01:51:09;;;;;;;5.82;1.85;;;21.00;73.10;;;;;;4207762;28;20054;-59
2021/08/26 01:53:31;;;;;;;4.10;1.50;;;21.00;73.70;;;;;;4208320;28;20502;-59
2021/08/26 01:55:54;;;;;;;4.10;1.70;;;21.00;73.00;;;;;;4192219;28;20474;-60
2021/08/26 01:58:16;;;;;;;3.83;1.42;;;21.00;73.90;;;;;;4175111;28;20521;-59
2021/08/26 02:00:40;;;;;;;6.45;1.83;;;20.90;73.70;;;;;;4187703;28;20048;-59
2021/08/26 02:03:02;;;;;;;7.32;1.70;;;20.90;73.70;;;;;;4191395;28;20498;-59
2021/08/26 02:05:24;;;;;;;3.50;1.77;;;20.90;73.80;;;;;;4192220;28;20552;-59
2021/08/26 02:07:47;;;;;;;5.65;1.58;;;20.90;74.20;;;;;;4191454;28;20051;-59
2021/08/26 02:10:10;;;;;;;4.10;1.63;;;20.90;74.40;;;;;;4183417;28;20049;-60
2021/08/26 02:12:32;;;;;;;5.85;1.67;;;20.90;74.10;;;;;;4191051;28;20099;-59
2021/08/26 02:14:54;;;;;;;5.28;2.33;;;20.90;74.10;;;;;;4199163;28;20047;-59
2021/08/26 02:17:17;;;;;;;4.47;1.58;;;20.90;74.30;;;;;;4207724;28;20051;-59
2021/08/26 02:19:40;;;;;;;8.45;2.55;;;20.90;74.90;;;;;;4200238;28;20125;-59
2021/08/26 02:22:02;;;;;;;6.22;2.20;;;20.90;75.10;;;;;;4200331;28;20481;-60
2021/08/26 02:24:24;;;;;;;6.82;1.77;;;20.90;74.60;;;;;;4191222;28;20137;-60
2021/08/26 02:26:47;;;;;;;5.50;1.67;;;20.90;74.90;;;;;;4190690;28;20052;-60
2021/08/26 02:29:09;;;;;;;10.77;1.95;;;20.90;75.00;;;;;;4190657;28;20063;-59
2021/08/26 02:31:31;;;;;;;4.18;1.60;;;20.90;74.90;;;;;;4191277;28;20076;-59
2021/08/26 02:33:55;;;;;;;4.50;1.83;;;20.90;75.10;;;;;;4192430;28;20045;-60
2021/08/26 02:36:17;;;;;;;4.38;1.95;;;20.90;76.20;;;;;;4191167;28;20059;-59
2021/08/26 02:38:39;;;;;;;5.82;1.70;;;20.90;75.50;;;;;;4191016;28;20048;-59
2021/08/26 02:41:01;;;;;;;4.93;1.55;;;20.90;75.50;;;;;;4190593;28;20052;-59
2021/08/26 02:43:23;;;;;;;4.95;1.75;;;20.90;75.50;;;;;;4191126;28;20044;-60
2021/08/26 02:45:45;;;;;;;6.07;2.17;;;20.90;75.60;;;;;;4174373;28;20492;-60
2021/08/26 02:48:07;;;;;;;3.13;1.83;;;20.90;75.50;;;;;;4174454;28;20456;-60
2021/08/26 02:50:30;;;;;;;6.13;2.25;;;20.90;75.40;;;;;;4199860;28;20045;-59
2021/08/26 02:52:52;;;;;;;5.30;2.20;;;20.90;75.70;;;;;;4207822;28;20133;-60
2021/08/26 02:55:15;;;;;;;9.68;2.63;;;20.90;75.80;;;;;;4195551;28;20055;-60
2021/08/26 02:57:37;;;;;;;5.10;1.88;;;20.90;75.90;;;;;;4194171;28;20115;-60
2021/08/26 02:59:59;;;;;;;6.43;1.90;;;20.90;75.70;;;;;;4193662;28;20053;-60
2021/08/26 03:02:21;;;;;;;6.47;1.85;;;20.90;75.60;;;;;;4193783;28;20045;-61
2021/08/26 03:04:43;;;;;;;5.85;2.25;;;20.90;75.80;;;;;;4198058;28;20101;-60
2021/08/26 03:07:06;;;;;;;5.03;2.13;;;20.90;76.80;;;;;;4210460;28;20105;-60
2021/08/26 03:09:28;;;;;;;6.30;2.60;;;20.90;75.70;;;;;;4206170;28;20055;-59
2021/08/26 03:11:51;;;;;;;6.65;2.00;;;20.90;75.80;;;;;;4193854;28;20123;-59
2021/08/26 03:14:13;;;;;;;7.35;2.42;;;20.90;75.90;;;;;;4194048;28;20051;-60
2021/08/26 03:16:35;;;;;;;6.97;2.00;;;20.90;75.80;;;;;;4193342;28;20086;-60
2021/08/26 03:18:57;;;;;;;5.55;2.13;;;20.90;75.90;;;;;;4193600;28;20041;-60
2021/08/26 03:21:20;;;;;;;9.65;2.45;;;20.90;76.00;;;;;;4207750;28;20055;-60
2021/08/26 03:23:43;;;;;;;4.97;2.70;;;20.80;76.10;;;;;;4209958;28;20509;-61
2021/08/26 03:26:05;;;;;;;6.57;2.42;;;20.90;76.20;;;;;;4210219;28;20036;-60
2021/08/26 03:28:27;;;;;;;6.63;2.28;;;20.90;76.30;;;;;;4210315;28;20059;-60
2021/08/26 03:30:49;;;;;;;7.70;2.15;;;20.90;76.40;;;;;;4176805;28;20144;-60
2021/08/26 03:33:11;;;;;;;6.05;2.22;;;20.90;76.50;;;;;;4176934;28;20561;-60
2021/08/26 03:35:33;;;;;;;7.50;2.80;;;20.90;76.50;;;;;;4205373;28;20204;-60
2021/08/26 03:37:56;;;;;;;7.85;2.22;;;20.90;76.50;;;;;;4209993;28;20065;-60
2021/08/26 03:40:19;;;;;;;10.00;2.80;;;20.90;76.70;;;;;;4210157;28;20402;-60
2021/08/26 03:42:41;;;;;;;8.75;2.38;;;20.90;76.40;;;;;;4210215;28;20056;-60
2021/08/26 03:45:04;;;;;;;7.50;2.33;;;20.90;76.50;;;;;;4199695;28;20067;-60
2021/08/26 03:47:27;;;;;;;8.95;2.80;;;20.80;76.40;;;;;;4193324;28;20391;-60
2021/08/26 03:49:49;;;;;;;9.57;3.13;;;20.90;76.60;;;;;;4204236;28;20125;-60
2021/08/26 03:52:11;;;;;;;7.03;3.05;;;20.80;76.60;;;;;;4209634;28;20054;-60
2021/08/26 03:54:33;;;;;;;10.32;3.20;;;20.80;76.70;;;;;;4204533;28;20135;-60
2021/08/26 03:56:57;;;;;;;8.05;2.75;;;20.80;76.80;;;;;;4192894;28;20055;-60
2021/08/26 03:59:19;;;;;;;7.85;3.35;;;20.80;76.80;;;;;;4192698;28;20414;-60
2021/08/26 04:01:41;;;;;;;7.13;2.70;;;20.90;77.00;;;;;;4192964;28;20517;-60
2021/08/26 04:04:03;;;;;;;9.35;2.85;;;20.90;77.00;;;;;;4195210;28;20052;-60
2021/08/26 04:06:25;;;;;;;7.38;3.40;;;20.90;77.00;;;;;;4208826;28;20046;-59
2021/08/26 04:08:47;;;;;;;13.27;3.25;;;20.80;77.00;;;;;;4209492;28;20044;-60
2021/08/26 04:11:09;;;;;;;8.15;3.03;;;20.80;77.00;;;;;;4209531;28;20048;-60
2021/08/26 04:13:33;;;;;;;7.10;2.88;;;20.80;77.00;;;;;;4209782;28;20047;-59
2021/08/26 04:15:55;;;;;;;10.77;2.90;;;20.80;77.00;;;;;;4192857;28;20507;-60
2021/08/26 04:18:17;;;;;;;8.35;2.50;;;20.80;77.10;;;;;;4192420;28;20200;-60
2021/08/26 04:20:39;;;;;;;15.10;3.47;;;20.80;77.10;;;;;;4191907;28;20550;-60
2021/08/26 04:23:05;;;;;;;7.10;2.80;;;20.80;77.20;;;;;;4192521;28;20596;-59
2021/08/26 04:25:27;;;;;;;7.13;2.53;;;20.80;77.90;;;;;;4175912;28;20052;-60
2021/08/26 04:27:49;;;;;;;9.55;2.70;;;20.80;77.20;;;;;;4175770;28;20060;-60
2021/08/26 04:30:14;;;;;;;9.50;2.97;;;20.80;77.20;;;;;;4176043;28;20067;-60
2021/08/26 04:32:36;;;;;;;8.05;2.95;;;20.80;77.10;;;;;;4175786;28;20403;-60
2021/08/26 04:34:58;;;;;;;8.35;3.00;;;20.80;77.20;;;;;;4188569;28;20136;-59
2021/08/26 04:37:21;;;;;;;5.88;2.75;;;20.80;77.10;;;;;;4192457;28;20063;-60
2021/08/26 04:39:42;;;;;;;6.70;2.72;;;20.80;77.10;;;;;;4192276;28;20070;-60
2021/08/26 04:42:05;;;;;;;4.75;2.50;;;20.80;77.00;;;;;;4192288;28;20072;-60
2021/08/26 04:44:28;;;;;;;8.73;2.70;;;20.80;77.10;;;;;;4192702;28;20075;-60
2021/08/26 04:46:52;;;;;;;9.45;2.92;;;20.80;77.20;;;;;;4192316;28;20487;-60
2021/08/26 04:49:14;;;;;;;9.27;3.60;;;20.80;77.30;;;;;;4193006;28;20041;-59
2021/08/26 04:51:36;;;;;;;7.85;2.75;;;20.80;77.30;;;;;;4203966;28;20063;-60
2021/08/26 04:53:58;;;;;;;9.85;2.97;;;20.80;77.40;;;;;;4201547;28;20052;-60
2021/08/26 04:56:20;;;;;;;7.93;3.00;;;20.80;77.50;;;;;;4192314;28;20117;-60
2021/08/26 04:58:42;;;;;;;4.88;2.55;;;20.80;77.60;;;;;;4191756;28;20044;-59
2021/08/26 05:01:04;;;;;;;7.15;2.83;;;20.80;77.50;;;;;;4191960;28;20079;-60
2021/08/26 05:03:27;;;;;;;6.00;2.90;;;20.80;77.50;;;;;;4191842;28;20091;-60
2021/08/26 05:05:49;;;;;;;7.05;2.40;;;20.80;77.40;;;;;;4192080;28;20482;-60
2021/08/26 05:08:12;;;;;;;12.57;3.17;;;20.80;77.40;;;;;;4192455;28;20068;-59
2021/08/26 05:10:34;;;;;;;8.20;2.97;;;20.80;77.40;;;;;;4191957;28;20072;-60
2021/08/26 05:12:56;;;;;;;8.10;2.72;;;20.80;77.50;;;;;;4191724;28;20098;-60
2021/08/26 05:15:18;;;;;;;8.82;2.78;;;20.80;77.40;;;;;;4175334;28;20118;-60
2021/08/26 05:17:40;;;;;;;9.25;3.00;;;20.80;77.50;;;;;;4175039;28;20053;-60
2021/08/26 05:20:04;;;;;;;8.68;3.67;;;20.80;77.40;;;;;;4207663;28;20154;-60
2021/08/26 05:22:26;;;;;;;9.88;3.03;;;20.80;77.30;;;;;;4175217;28;20048;-60
2021/08/26 05:24:50;;;;;;;7.22;2.88;;;20.80;77.30;;;;;;4175259;28;20048;-60
2021/08/26 05:27:12;;;;;;;7.60;2.33;;;20.80;78.20;;;;;;4174772;28;20049;-60
2021/08/26 05:29:34;;;;;;;8.68;2.95;;;20.80;77.50;;;;;;4175193;28;20546;-61
2021/08/26 05:31:57;;;;;;;9.82;3.28;;;20.80;77.60;;;;;;4201768;28;20567;-61
2021/08/26 05:34:19;;;;;;;6.38;2.60;;;20.80;77.80;;;;;;4207836;28;20058;-60
2021/08/26 05:36:42;;;;;;;10.82;3.05;;;20.80;77.70;;;;;;4208360;28;20414;-60
2021/08/26 05:39:04;;;;;;;7.43;2.83;;;20.80;77.90;;;;;;4198553;28;20040;-60
2021/08/26 05:41:26;;;;;;;7.35;2.60;;;20.80;77.90;;;;;;4200180;28;20195;-60
2021/08/26 05:43:48;;;;;;;7.60;2.53;;;20.80;78.20;;;;;;4193462;28;20068;-61
2021/08/26 05:46:10;;;;;;;12.02;4.05;;;20.80;78.50;;;;;;4191486;28;20132;-60
2021/08/26 05:48:33;;;;;;;7.55;2.67;;;20.80;78.70;;;;;;4191717;28;20048;-60
2021/08/26 05:50:55;;;;;;;6.97;2.97;;;20.90;79.00;;;;;;4191490;28;20478;-60
2021/08/26 05:53:18;;;;;;;5.57;2.80;;;20.90;78.60;;;;;;4191258;28;20056;-60
2021/08/26 05:55:40;;;;;;;8.80;3.75;;;20.90;78.40;;;;;;4191232;28;20056;-60
2021/08/26 05:58:02;;;;;;;8.90;3.17;;;20.90;78.20;;;;;;4193651;28;20939;-60
2021/08/26 06:00:24;;;;;;;12.50;3.45;;;20.90;78.10;;;;;;4191318;28;20565;-60
2021/08/26 06:02:46;;;;;;;11.05;2.72;;;20.90;77.90;;;;;;4191877;28;20056;-60
2021/08/26 06:05:09;;;;;;;10.93;3.47;;;20.90;77.80;;;;;;4207659;28;20055;-60
2021/08/26 06:07:31;;;;;;;10.95;3.58;;;20.90;77.90;;;;;;4208096;28;20147;-60
2021/08/26 06:09:55;;;;;;;9.80;3.40;;;20.90;77.90;;;;;;4192116;28;20052;-60
2021/08/26 06:12:17;;;;;;;12.02;3.42;;;20.90;78.00;;;;;;4191299;28;20039;-60
2021/08/26 06:14:40;;;;;;;11.80;3.25;;;20.90;77.90;;;;;;4191096;28;20051;-60
2021/08/26 06:17:02;;;;;;;8.60;3.15;;;20.90;78.10;;;;;;4191208;28;20430;-60
2021/08/26 06:19:24;;;;;;;11.98;3.85;;;20.90;78.20;;;;;;4198346;28;20041;-60
2021/08/26 06:21:46;;;;;;;8.15;3.67;;;20.90;78.20;;;;;;4191224;28;20068;-60
2021/08/26 06:24:08;;;;;;;12.10;4.38;;;20.90;78.20;;;;;;4191169;28;20105;-60
2021/08/26 06:26:31;;;;;;;11.05;3.45;;;20.90;78.20;;;;;;4191007;28;20435;-60
2021/08/26 06:28:54;;;;;;;10.23;3.72;;;20.90;78.20;;;;;;4175738;28;20078;-60
2021/08/26 06:31:17;;;;;;;11.63;3.25;;;20.90;78.20;;;;;;4177381;28;20053;-60
2021/08/26 06:33:39;;;;;;;9.32;3.40;;;20.90;78.20;;;;;;4189660;28;20052;-60
2021/08/26 06:36:01;;;;;;;10.57;4.22;;;20.90;78.10;;;;;;4194479;28;20170;-60
2021/08/26 06:38:23;;;;;;;12.25;3.67;;;20.90;78.10;;;;;;4190017;28;20094;-60
2021/08/26 06:40:45;;;;;;;10.75;2.90;;;20.90;78.20;;;;;;4166230;28;20111;-60
2021/08/26 06:43:09;;;;;;;12.13;3.80;;;21.00;78.20;;;;;;4167200;28;20052;-60
2021/08/26 06:45:31;;;;;;;11.85;3.97;;;21.00;78.10;;;;;;4186537;28;20498;-60
2021/08/26 06:47:53;;;;;;;11.32;3.55;;;21.00;78.20;;;;;;4181557;28;20052;-60
2021/08/26 06:50:15;;;;;;;9.15;3.85;;;20.90;77.80;;;;;;4177202;28;20053;-60
2021/08/26 06:52:37;;;;;;;14.90;4.40;;;20.90;77.60;;;;;;4177503;28;20045;-61
2021/08/26 06:55:00;;;;;;;9.75;3.47;;;20.90;77.90;;;;;;4181324;28;20076;-60
2021/08/26 06:57:24;;;;;;;10.95;3.70;;;21.00;78.10;;;;;;4170383;28;20070;-61
2021/08/26 06:59:47;;;;;;;10.75;3.60;;;21.00;78.30;;;;;;4180171;28;20569;-61
2021/08/26 07:02:09;;;;;;;12.27;4.07;;;21.00;78.50;;;;;;4177857;28;20063;-61
2021/08/26 07:04:31;;;;;;;12.18;4.53;;;21.10;78.50;;;;;;4175132;28;20051;-61
2021/08/26 07:06:54;;;;;;;11.18;4.05;;;21.10;78.50;;;;;;4160714;28;20057;-61
2021/08/26 07:09:16;;;;;;;11.65;4.30;;;21.10;78.40;;;;;;4160442;28;20045;-61
2021/08/26 07:11:38;;;;;;;13.00;3.35;;;21.20;78.50;;;;;;4160555;28;20056;-62
2021/08/26 07:14:00;;;;;;;11.90;4.25;;;21.20;78.10;;;;;;4160668;28;20468;-62
2021/08/26 07:16:24;;;;;;;15.05;4.55;;;21.30;78.00;;;;;;4168284;28;20476;-62
2021/08/26 07:18:46;;;;;;;12.63;4.32;;;21.40;78.00;;;;;;4153757;28;20045;-61
2021/08/26 07:21:08;;;;;;;14.32;4.35;;;21.40;78.00;;;;;;4160054;28;20052;-62
2021/08/26 07:23:30;;;;;;;13.93;4.50;;;21.40;77.90;;;;;;4159228;28;20856;-62
2021/08/26 07:25:52;;;;;;;14.20;4.13;;;21.40;77.90;;;;;;4164837;28;20108;-62
2021/08/26 07:28:14;;;;;;;11.93;4.28;;;21.50;77.80;;;;;;4190299;28;20052;-62
2021/08/26 07:30:38;;;;;;;13.05;4.00;;;21.50;77.70;;;;;;4193692;28;20051;-62
2021/08/26 07:33:02;;;;;;;14.00;4.28;;;21.50;77.80;;;;;;4183885;28;20044;-62
2021/08/26 07:35:24;;;;;;;16.75;4.25;;;21.50;77.90;;;;;;4193646;28;20521;-62
2021/08/26 07:37:49;;;;;;;10.52;3.72;;;21.60;77.90;;;;;;4185332;28;21123;-62
2021/08/26 07:40:12;;;;;;;14.50;3.70;;;21.60;78.20;;;;;;4176527;28;20586;-62
2021/08/26 07:42:34;;;;;;;11.93;3.78;;;21.60;78.20;;;;;;4175346;28;20053;-62
2021/08/26 07:45:02;;;;;;;12.88;3.97;;;21.60;78.10;;;;;;4160212;28;20431;-62
2021/08/26 07:47:24;;;;;;;11.52;4.18;;;21.60;77.70;;;;;;4176521;28;20479;-62
2021/08/26 07:49:47;;;;;;;12.00;4.28;;;21.60;77.50;;;;;;4176400;28;20056;-62
2021/08/26 07:52:09;;;;;;;13.77;3.95;;;21.60;77.10;;;;;;4176949;28;20089;-62
2021/08/26 07:54:32;;;;;;;17.77;5.32;;;21.60;76.20;;;;;;4191990;28;20036;-62
2021/08/26 07:56:54;;;;;;;16.00;4.30;;;21.60;76.20;;;;;;4193788;28;20410;-62
2021/08/26 07:59:16;;;;;;;13.30;4.07;;;21.60;76.00;;;;;;4192896;28;20411;-62
2021/08/26 08:01:38;;;;;;;14.80;4.22;;;21.60;75.40;;;;;;4194215;28;20052;-62
2021/08/26 08:04:00;;;;;;;12.52;4.15;;;21.60;75.30;;;;;;4203701;28;20513;-62
2021/08/26 08:06:24;;;;;;;14.80;5.15;;;21.60;75.00;;;;;;4209542;28;20060;-61
2021/08/26 08:08:46;;;;;;;12.25;4.68;;;21.60;74.70;;;;;;4208719;28;20051;-62
2021/08/26 08:11:08;;;;;;;12.43;3.38;;;21.60;75.10;;;;;;4195106;28;20041;-62
2021/08/26 08:13:37;;;;;;;10.50;3.55;;;21.60;75.30;;;;;;4192840;28;20481;-62
2021/08/26 08:16:00;;;;;;;14.73;4.85;;;21.60;75.00;;;;;;4193030;28;20056;-62
2021/08/26 08:18:23;;;;;;;14.40;4.20;;;21.60;75.20;;;;;;4194138;28;20455;-62
2021/08/26 08:20:47;;;;;;;11.40;4.47;;;21.70;75.40;;;;;;4192704;28;20063;-62
2021/08/26 08:23:11;;;;;;;12.18;4.05;;;21.70;75.10;;;;;;4193066;28;20053;-62
2021/08/26 08:25:33;;;;;;;13.88;4.60;;;21.70;75.00;;;;;;4192390;28;20044;-62
2021/08/26 08:27:55;;;;;;;15.27;4.22;;;21.70;74.30;;;;;;4193722;28;20110;-62
2021/08/26 08:30:17;;;;;;;10.43;3.75;;;21.70;74.70;;;;;;4192645;28;20052;-62
2021/08/26 08:32:39;;;;;;;14.70;4.40;;;21.70;73.80;;;;;;4192333;28;20068;-62
2021/08/26 08:35:02;;;;;;;14.50;3.90;;;21.80;73.40;;;;;;4192584;28;20110;-62
2021/08/26 08:37:24;;;;;;;15.60;4.55;;;21.80;74.00;;;;;;4192669;28;20459;-62
2021/08/26 08:39:48;;;;;;;10.50;3.88;;;21.80;74.60;;;;;;4193168;28;20698;-62
2021/08/26 08:42:11;;;;;;;11.93;4.22;;;21.90;74.70;;;;;;4190104;28;20044;-62
2021/08/26 08:44:35;;;;;;;14.50;4.60;;;21.90;75.10;;;;;;4192287;28;20491;-62
2021/08/26 08:46:58;;;;;;;10.60;3.53;;;21.90;74.50;;;;;;4192354;28;20052;-62
2021/08/26 08:49:22;;;;;;;11.52;4.63;;;21.90;73.90;;;;;;4207777;28;20051;-62
2021/08/26 08:51:44;;;;;;;8.05;2.90;;;21.90;73.20;;;;;;4209109;28;20074;-62
2021/08/26 08:54:07;;;;;;;8.95;3.53;;;22.00;73.70;;;;;;4208465;28;20056;-62
2021/08/26 08:56:31;;;;;;;8.50;3.95;;;22.00;74.20;;;;;;4208820;28;20048;-62
2021/08/26 08:58:55;;;;;;;10.93;4.10;;;22.00;74.00;;;;;;4196860;28;20064;-62
2021/08/26 09:01:17;;;;;;;11.80;4.18;;;22.00;73.60;;;;;;4192353;28;20494;-62
2021/08/26 09:03:40;;;;;;;9.75;3.75;;;22.00;73.20;;;;;;4203604;28;20062;-62
2021/08/26 09:06:02;;;;;;;12.25;3.78;;;22.10;72.70;;;;;;4209064;28;20056;-62
2021/08/26 09:08:26;;;;;;;12.73;4.05;;;22.10;73.10;;;;;;4208564;28;20557;-62
2021/08/26 09:10:48;;;;;;;12.07;4.47;;;22.10;72.70;;;;;;4209566;28;20048;-62
2021/08/26 09:13:12;;;;;;;10.65;4.00;;;22.10;72.00;;;;;;4199916;28;20442;-62
2021/08/26 09:15:34;;;;;;;12.80;3.88;;;22.10;72.10;;;;;;4192023;28;20046;-62
2021/08/26 09:18:15;;;;;;;9.82;3.53;;;22.10;72.40;;;;;;4191835;28;20567;-62
2021/08/26 09:20:49;;;;;;;14.43;4.82;;;22.10;72.90;;;;;;4191667;28;20044;-62
2021/08/26 09:23:11;;;;;;;8.82;3.95;;;22.10;72.80;;;;;;4191205;28;20490;-62
2021/08/26 09:25:33;;;;;;;12.18;3.60;;;22.10;72.60;;;;;;4191924;28;20508;-62
2021/08/26 09:27:55;;;;;;;15.18;4.28;;;22.10;72.10;;;;;;4191674;28;20088;-62
2021/08/26 09:30:20;;;;;;;12.73;4.13;;;22.10;72.40;;;;;;4191315;28;20080;-63
2021/08/26 09:32:47;;;;;;;12.73;3.30;;;22.10;72.90;;;;;;4202710;28;20448;-62
2021/08/26 09:35:14;;;;;;;12.65;3.95;;;22.10;73.10;;;;;;4208263;28;20767;-62
2021/08/26 09:37:42;;;;;;;14.07;4.50;;;22.10;73.60;;;;;;4207970;28;20059;-62
2021/08/26 09:40:06;;;;;;;13.52;4.30;;;22.10;74.60;;;;;;4208063;28;20055;-62
2021/08/26 09:42:29;;;;;;;12.30;4.00;;;22.10;74.50;;;;;;4206743;28;20547;-62
2021/08/26 09:44:51;;;;;;;13.15;4.13;;;22.10;75.40;;;;;;4191646;28;20453;-62
2021/08/26 09:47:15;;;;;;;15.95;4.05;;;22.10;74.30;;;;;;4191397;28;20052;-62
2021/08/26 09:49:40;;;;;;;12.48;3.92;;;22.10;74.50;;;;;;4189498;28;20117;-62
2021/08/26 09:52:07;;;;;;;12.80;3.95;;;22.10;74.50;;;;;;4191379;28;20098;-62
2021/08/26 09:54:31;;;;;;;12.30;4.15;;;22.00;74.20;;;;;;4191807;28;20055;-62
2021/08/26 09:56:53;;;;;;;9.75;3.78;;;22.00;73.70;;;;;;4191623;28;20094;-61
2021/08/26 09:59:16;;;;;;;9.50;3.35;;;22.00;73.90;;;;;;4191363;28;20494;-62
2021/08/26 10:01:38;;;;;;;8.82;3.80;;;22.10;74.30;;;;;;4191325;28;20414;-62
2021/08/26 10:04:02;;;;;;;13.07;4.20;;;22.00;74.20;;;;;;4207174;28;20313;-62
2021/08/26 10:06:25;;;;;;;12.57;3.80;;;22.00;73.80;;;;;;4208006;28;20044;-61
2021/08/26 10:08:50;;;;;;;7.95;3.00;;;22.00;73.60;;;;;;4207688;28;20132;-62
2021/08/26 10:11:15;;;;;;;6.78;2.72;;;22.00;72.50;;;;;;4203642;28;20165;-62
2021/08/26 10:13:39;;;;;;;8.32;3.17;;;22.00;73.20;;;;;;4207998;28;20052;-62
2021/08/26 10:16:01;;;;;;;9.25;2.55;;;22.00;71.80;;;;;;4207937;28;20059;-62
2021/08/26 10:18:23;;;;;;;8.65;2.72;;;22.00;71.50;;;;;;4197100;28;20044;-62
2021/08/26 10:20:47;;;;;;;11.35;2.75;;;22.00;71.20;;;;;;4191107;28;20048;-62
2021/08/26 10:23:11;;;;;;;8.07;2.70;;;22.00;71.40;;;;;;4174442;28;20048;-62
2021/08/26 10:25:38;;;;;;;4.63;2.20;;;22.00;71.40;;;;;;4174658;28;20053;-62
2021/08/26 10:28:00;;;;;;;6.00;2.38;;;22.10;70.00;;;;;;4180965;28;20065;-62
2021/08/26 10:30:28;;;;;;;12.27;2.38;;;22.00;67.10;;;;;;4191262;28;20044;-62
2021/08/26 10:33:05;;;;;;;8.02;2.15;;;22.10;68.30;;;;;;4190648;28;20059;-61
2021/08/26 10:35:27;;;;;;;4.88;2.38;;;22.10;66.80;;;;;;4190900;28;20413;-62
2021/08/26 10:37:52;;;;;;;6.45;2.13;;;22.10;65.70;;;;;;4190913;28;20056;-62
2021/08/26 10:40:33;;;;;;;6.57;1.95;;;22.10;66.60;;;;;;4190867;28;20122;-62
2021/08/26 10:42:56;;;;;;;8.10;1.48;;;22.10;67.50;;;;;;4174185;28;20045;-62
2021/08/26 10:45:25;;;;;;;3.55;1.00;;;22.10;68.20;;;;;;4174710;28;20065;-62
2021/08/26 10:48:14;;;;;;;3.78;1.38;;;22.10;66.90;;;;;;4182857;28;20517;-61
2021/08/26 10:50:39;;;;;;;7.30;1.00;;;22.10;66.70;;;;;;4190984;28;20126;-61
2021/08/26 10:53:04;;;;;;;3.35;1.00;;;22.20;66.80;;;;;;4190959;28;20469;-61
2021/08/26 10:55:31;;;;;;;2.42;0.75;;;22.20;66.40;;;;;;4190587;28;20414;-62
2021/08/26 10:57:53;;;;;;;2.13;0.95;;;22.20;65.70;;;;;;4191290;28;20052;-62
2021/08/26 11:00:40;;;;;;;3.53;0.80;;;22.20;64.90;;;;;;4191378;28;20457;-62
2021/08/26 11:03:02;;;;;;;3.92;0.70;;;22.20;64.80;;;;;;4192310;28;20052;-62
2021/08/26 11:05:34;;;;;;;3.97;0.95;;;22.20;64.10;;;;;;4207620;28;20486;-62
2021/08/26 11:07:56;;;;;;;2.03;0.88;;;22.20;64.50;;;;;;4202138;28;20143;-62
2021/08/26 11:10:29;;;;;;;2.08;0.73;;;22.30;64.60;;;;;;4190623;28;20049;-62
2021/08/26 11:12:52;;;;;;;4.45;0.98;;;22.30;64.30;;;;;;4189241;28;20446;-62
2021/08/26 11:15:25;;;;;;;4.13;0.90;;;22.30;65.00;;;;;;4190446;28;20049;-62
2021/08/26 11:17:47;;;;;;;2.78;0.80;;;22.30;62.70;;;;;;4208982;28;20505;-61
2021/08/26 11:20:31;;;;;;;1.80;0.80;;;22.30;62.50;;;;;;4207008;28;20406;-61
2021/08/26 11:23:11;;;;;;;1.75;0.73;;;22.30;61.40;;;;;;4200894;28;20055;-60
2021/08/26 11:25:35;;;;;;;1.20;0.60;;;22.30;62.00;;;;;;4190648;28;20135;-60
2021/08/26 11:28:27;;;;;;;2.58;0.90;;;22.40;61.00;;;;;;4193745;28;20052;-59
2021/08/26 11:30:50;;;;;;;1.45;0.68;;;22.40;60.60;;;;;;4186897;28;20044;-60
2021/08/26 11:33:26;;;;;;;2.92;0.98;;;22.40;61.20;;;;;;4201959;28;20127;-60
2021/08/26 11:35:48;;;;;;;2.10;0.68;;;22.40;60.50;;;;;;4176637;28;20140;-63
2021/08/26 11:38:10;;;;;;;2.40;0.60;;;22.40;60.50;;;;;;4181529;28;20048;-63
2021/08/26 11:40:34;;;;;;;3.88;1.05;;;22.40;60.80;;;;;;4193217;28;20048;-61
2021/08/26 11:42:56;;;;;;;3.65;0.95;;;22.40;61.70;;;;;;4193337;28;20059;-62
2021/08/26 11:45:23;;;;;;;2.60;0.80;;;22.40;61.70;;;;;;4193130;28;20074;-62
2021/08/26 11:47:48;;;;;;;2.78;0.80;;;22.30;62.10;;;;;;4192423;28;20490;-62
2021/08/26 11:50:16;;;;;;;3.00;0.90;;;22.30;61.20;;;;;;4204396;28;20513;-62
2021/08/26 11:52:40;;;;;;;3.78;0.85;;;22.30;61.40;;;;;;4209840;28;20044;-62
2021/08/26 11:55:21;;;;;;;4.88;0.90;;;22.30;61.50;;;;;;4209591;28;20525;-61
2021/08/26 11:57:45;;;;;;;1.88;0.63;;;22.30;61.80;;;;;;4201129;28;20048;-61
2021/08/26 12:00:10;;;;;;;0.98;0.57;;;22.30;60.90;;;;;;4192814;28;20972;-62
2021/08/26 12:02:36;;;;;;;6.30;0.60;;;22.30;59.70;;;;;;4199710;28;20044;-61
2021/08/26 12:05:01;;;;;;;1.70;0.93;;;22.30;59.70;;;;;;4209694;28;20563;-61
2021/08/26 12:07:28;;;;;;;1.85;0.80;;;22.30;60.30;;;;;;4209540;28;20439;-61
2021/08/26 12:09:51;;;;;;;2.67;1.08;;;22.30;62.10;;;;;;4201960;28;20052;-61
2021/08/26 12:12:14;;;;;;;2.88;0.80;;;22.30;60.10;;;;;;4193740;28;20051;-62
2021/08/26 12:14:38;;;;;;;5.55;1.17;;;22.30;60.30;;;;;;4192879;28;20510;-62
2021/08/26 12:17:11;;;;;;;3.90;1.27;;;22.40;60.60;;;;;;4193705;28;20052;-61
2021/08/26 12:19:33;;;;;;;2.35;0.77;;;22.40;59.80;;;;;;4192482;28;20140;-61
2021/08/26 12:21:56;;;;;;;3.60;0.93;;;22.40;60.00;;;;;;4195939;28;20036;-62
2021/08/26 12:24:18;;;;;;;5.25;1.25;;;22.40;59.80;;;;;;4209447;28;20050;-62
2021/08/26 12:26:40;;;;;;;2.47;0.80;;;22.40;59.10;;;;;;4209376;28;20048;-62
2021/08/26 12:29:03;;;;;;;2.38;0.80;;;22.40;58.70;;;;;;4175276;28;20041;-62